Terminal Aerodrome Forecast
Issued by NWS

Home | Current Version | Previous Version | Graphics & Text | Print | Product List | Glossary On
Versions: 1 2 3 4 5 6 7 8 9 10 11 12 13 14 15 16
864
FTUS42 KMHX 151721
TAFOAJ
TAF
KOAJ 151721Z 1518/1618 22005KT P6SM SKC
     FM160800 VRB04KT 3SM BR SCT005 BKN025
     FM161300 33007KT P6SM BKN025
      AMD LTD TO CLD VIS AND WIND=

USA.gov is the U.S. government's official web portal to all federal, state and local government web resources and services.